Time;durP1;ratioP1;P1;durP2;ratioP2;P2;SDS_P1;SDS_P2;PMS_P1;PMS_P2;Temp;Humidity;BMP_temperature;BMP_pressure;BME280_temperature;BME280_humidity;BME280_pressure;Samples;Min_cycle;Max_cycle;Signal;HPM_P1;HPM_P2
2021/06/14 00:01:07;;;;;;;8.23;4.00;;;;;;;12.41;98.40;101625.38;5194216;28;20033;-81
2021/06/14 00:03:37;;;;;;;8.77;4.03;;;;;;;12.11;100.00;101630.53;5195384;28;20033;-82
2021/06/14 00:06:08;;;;;;;8.27;4.25;;;;;;;12.10;100.00;101634.06;5196006;28;20030;-81
2021/06/14 00:08:41;;;;;;;10.52;4.15;;;;;;;12.37;98.15;101633.34;5196022;28;20044;-79
2021/06/14 00:11:12;;;;;;;7.85;4.03;;;;;;;12.24;99.30;101626.69;5201744;28;20033;-80
2021/06/14 00:13:42;;;;;;;9.93;3.90;;;;;;;12.20;97.79;101631.16;5196260;28;20044;-80
2021/06/14 00:16:13;;;;;;;8.40;4.10;;;;;;;12.00;100.00;101635.19;5196400;28;20029;-80
2021/06/14 00:18:43;;;;;;;8.05;4.05;;;;;;;11.77;100.00;101630.47;5197596;28;20033;-80
2021/06/14 00:21:13;;;;;;;10.35;4.03;;;;;;;11.53;100.00;101636.25;5190730;28;20025;-79
2021/06/14 00:23:44;;;;;;;6.80;4.05;;;;;;;11.83;100.00;101632.97;5198630;28;20025;-80
2021/06/14 00:26:15;;;;;;;7.00;4.15;;;;;;;11.85;100.00;101625.06;5198913;28;20025;-82
2021/06/14 00:28:45;;;;;;;8.52;4.28;;;;;;;11.93;100.00;101625.75;5197190;28;20040;-81
2021/06/14 00:31:16;;;;;;;8.73;4.20;;;;;;;11.73;100.00;101628.84;5200319;28;20025;-80
2021/06/14 00:33:47;;;;;;;6.75;3.80;;;;;;;11.61;100.00;101616.03;5196165;28;20026;-80
2021/06/14 00:36:17;;;;;;;7.53;4.05;;;;;;;11.46;100.00;101615.50;5197976;28;20034;-81
2021/06/14 00:38:47;;;;;;;6.90;3.60;;;;;;;11.96;99.46;101616.03;5197158;28;20032;-80
2021/06/14 00:41:18;;;;;;;8.50;3.80;;;;;;;11.81;98.54;101619.03;5199578;28;20103;-81
2021/06/14 00:43:49;;;;;;;8.27;4.25;;;;;;;11.32;100.00;101613.19;5195734;28;20029;-81
2021/06/14 00:46:19;;;;;;;8.60;4.10;;;;;;;11.25;100.00;101613.34;5194412;28;20022;-80
2021/06/14 00:48:50;;;;;;;7.22;3.80;;;;;;;11.32;100.00;101604.47;5197673;28;20495;-79
2021/06/14 00:51:20;;;;;;;7.75;3.88;;;;;;;11.20;100.00;101596.88;5196645;28;20426;-81
2021/06/14 00:53:56;;;;;;;7.07;3.78;;;;;;;11.19;100.00;101608.22;5199310;28;20035;-79
2021/06/14 00:56:27;;;;;;;10.77;4.47;;;;;;;11.07;100.00;101611.97;5197642;28;20025;-81
2021/06/14 00:58:58;;;;;;;8.85;4.35;;;;;;;11.12;100.00;101606.66;5189427;28;20029;-80
2021/06/14 01:01:28;;;;;;;9.40;4.22;;;;;;;11.33;100.00;101596.59;5190968;28;20480;-79
2021/06/14 01:03:58;;;;;;;7.05;3.70;;;;;;;11.57;100.00;101595.19;5195131;28;20033;-79
2021/06/14 01:06:29;;;;;;;10.95;4.50;;;;;;;11.49;100.00;101597.97;5196228;28;20116;-79
2021/06/14 01:08:59;;;;;;;7.10;3.90;;;;;;;11.55;100.00;101597.81;5195806;28;20490;-79
2021/06/14 01:11:42;;;;;;;8.57;3.95;;;;;;;11.38;100.00;101592.09;5195362;28;20080;-79
2021/06/14 01:14:27;;;;;;;9.60;4.50;;;;;;;11.44;100.00;101589.34;5219980;22;20037;-79
2021/06/14 01:17:12;;;;;;;10.70;4.63;;;;;;;11.34;100.00;101590.47;5215740;28;20021;-79
2021/06/14 01:20:13;;;;;;;11.20;4.77;;;;;;;11.49;100.00;101590.13;5219422;28;20039;-79
2021/06/14 01:23:01;;;;;;;8.10;4.28;;;;;;;11.24;100.00;101588.09;5214882;28;20411;-79
2021/06/14 01:25:40;;;;;;;11.10;4.07;;;;;;;11.37;100.00;101587.75;5193203;28;20033;-80
2021/06/14 01:28:13;;;;;;;11.18;4.57;;;;;;;11.50;100.00;101578.75;5194450;28;20053;-80
2021/06/14 01:30:44;;;;;;;9.90;4.25;;;;;;;11.51;100.00;101582.22;5197650;28;20026;-79
2021/06/14 01:33:18;;;;;;;11.32;4.80;;;;;;;11.30;100.00;101583.53;5196150;28;20034;-79
2021/06/14 01:36:02;;;;;;;9.07;4.45;;;;;;;11.29;100.00;101575.75;5194557;28;20037;-80
2021/06/14 01:38:33;;;;;;;10.00;4.85;;;;;;;11.56;100.00;101581.25;5199118;28;20441;-79
2021/06/14 01:41:07;;;;;;;9.30;4.32;;;;;;;11.36;100.00;101580.81;5199250;28;20025;-79
2021/06/14 01:43:40;;;;;;;8.68;4.65;;;;;;;11.19;100.00;101588.19;5192247;28;20550;-79
2021/06/14 01:46:19;;;;;;;8.63;4.57;;;;;;;11.25;100.00;101582.78;5197883;28;20029;-79
2021/06/14 01:48:52;;;;;;;8.13;4.85;;;;;;;11.21;100.00;101583.75;5197783;28;20022;-79
2021/06/14 01:51:28;;;;;;;9.15;4.60;;;;;;;11.10;100.00;101569.19;5197714;28;20057;-80
2021/06/14 01:54:02;;;;;;;10.13;4.00;;;;;;;11.04;100.00;101572.81;5185818;28;20482;-80
2021/06/14 01:56:45;;;;;;;9.18;4.30;;;;;;;11.04;100.00;101561.47;5195630;28;20037;-80
2021/06/14 01:59:20;;;;;;;7.10;3.97;;;;;;;11.30;100.00;101560.00;5194726;28;20029;-80
2021/06/14 02:01:53;;;;;;;8.88;4.40;;;;;;;11.04;100.00;101567.56;5201840;28;20092;-79
2021/06/14 02:04:24;;;;;;;7.60;4.40;;;;;;;10.99;100.00;101562.50;5192893;28;20030;-79
2021/06/14 02:06:55;;;;;;;10.15;4.18;;;;;;;10.92;100.00;101569.59;5191609;28;20032;-80
2021/06/14 02:09:29;;;;;;;8.68;4.30;;;;;;;10.90;100.00;101567.91;5196182;28;20376;-79
2021/06/14 02:12:04;;;;;;;10.85;4.47;;;;;;;10.83;100.00;101563.69;5197736;28;20041;-80
2021/06/14 02:14:38;;;;;;;7.65;4.18;;;;;;;10.67;100.00;101557.06;5201206;28;20041;-79
2021/06/14 02:17:11;;;;;;;11.50;4.80;;;;;;;10.69;100.00;101557.88;5194415;28;20564;-79
2021/06/14 02:19:44;;;;;;;8.88;4.50;;;;;;;10.66;100.00;101563.19;5195717;28;20030;-79
2021/06/14 02:22:18;;;;;;;11.70;4.78;;;;;;;10.81;100.00;101562.84;5192699;28;20040;-80
2021/06/14 02:24:48;;;;;;;8.60;4.40;;;;;;;10.77;100.00;101555.97;5187211;28;20030;-80
2021/06/14 02:27:18;;;;;;;9.43;4.28;;;;;;;10.70;100.00;101549.16;5196392;28;20411;-79
2021/06/14 02:29:49;;;;;;;8.55;4.28;;;;;;;10.61;100.00;101555.44;5194046;28;20506;-79
2021/06/14 02:32:19;;;;;;;11.32;4.78;;;;;;;10.44;100.00;101549.66;5192161;28;20053;-80
2021/06/14 02:34:50;;;;;;;9.80;4.38;;;;;;;10.51;100.00;101539.97;5196948;28;20029;-79
2021/06/14 02:37:21;;;;;;;9.52;4.32;;;;;;;10.47;100.00;101538.28;5196763;28;20033;-80
2021/06/14 02:39:52;;;;;;;9.40;4.22;;;;;;;10.52;100.00;101536.44;5194738;28;20037;-80
2021/06/14 02:42:22;;;;;;;11.65;4.75;;;;;;;10.61;100.00;101538.88;5195249;28;20026;-79
2021/06/14 02:44:53;;;;;;;10.38;4.93;;;;;;;10.47;100.00;101540.88;5191953;28;20048;-78
2021/06/14 02:47:24;;;;;;;10.05;4.72;;;;;;;10.59;100.00;101535.44;5187899;28;20018;-78
2021/06/14 02:49:57;;;;;;;9.43;4.13;;;;;;;10.57;100.00;101535.47;5191959;28;20069;-79
2021/06/14 02:52:29;;;;;;;8.68;4.43;;;;;;;10.64;100.00;101533.56;5195980;28;20022;-79
2021/06/14 02:55:13;;;;;;;9.00;4.03;;;;;;;10.63;100.00;101534.47;5192382;28;20022;-78
2021/06/14 02:57:49;;;;;;;10.52;4.03;;;;;;;10.70;100.00;101530.84;5196673;28;20029;-78
2021/06/14 03:00:22;;;;;;;9.13;4.10;;;;;;;10.39;100.00;101524.50;5195119;28;20017;-79
2021/06/14 03:02:57;;;;;;;11.60;4.03;;;;;;;10.57;100.00;101517.19;5192166;28;20036;-79
2021/06/14 03:05:29;;;;;;;11.70;4.57;;;;;;;10.49;100.00;101518.22;5192793;28;20072;-78
2021/06/14 03:08:00;;;;;;;9.30;4.40;;;;;;;10.66;100.00;101521.34;5195226;28;20057;-79
2021/06/14 03:10:33;;;;;;;8.70;4.47;;;;;;;10.67;100.00;101534.38;5193102;28;20084;-79
2021/06/14 03:13:05;;;;;;;8.50;4.40;;;;;;;10.75;98.61;101532.47;5193367;28;20510;-79
2021/06/14 03:15:35;;;;;;;13.65;5.15;;;;;;;10.40;100.00;101528.84;5193844;28;20550;-79
2021/06/14 03:18:08;;;;;;;10.68;4.53;;;;;;;10.44;100.00;101526.16;5192157;28;20109;-79
2021/06/14 03:20:40;;;;;;;10.15;4.53;;;;;;;10.43;100.00;101529.66;5194527;28;20105;-79
2021/06/14 03:23:14;;;;;;;10.90;4.38;;;;;;;10.42;100.00;101533.16;5192972;28;20033;-79
2021/06/14 03:25:44;;;;;;;8.88;4.07;;;;;;;10.36;100.00;101527.19;5194808;28;20673;-79
2021/06/14 03:28:16;;;;;;;11.80;4.50;;;;;;;10.29;100.00;101533.41;5190512;28;20049;-79
2021/06/14 03:30:48;;;;;;;11.38;4.43;;;;;;;10.39;100.00;101532.34;5192402;28;20014;-79
2021/06/14 03:33:19;;;;;;;12.80;4.38;;;;;;;10.28;100.00;101531.69;5194769;28;20018;-78
2021/06/14 03:35:53;;;;;;;10.60;4.55;;;;;;;10.49;100.00;101532.13;5190865;28;20087;-78
2021/06/14 03:38:24;;;;;;;8.55;4.70;;;;;;;10.40;100.00;101523.63;5188239;28;20026;-79
2021/06/14 03:40:54;;;;;;;10.50;4.80;;;;;;;10.69;100.00;101522.13;5191820;28;20151;-79
2021/06/14 03:43:25;;;;;;;11.25;4.57;;;;;;;10.72;100.00;101526.44;5192414;28;20481;-81
2021/06/14 03:45:55;;;;;;;11.15;4.45;;;;;;;10.68;100.00;101522.19;5193583;28;20025;-81
2021/06/14 03:48:25;;;;;;;11.45;4.70;;;;;;;10.63;100.00;101529.22;5197698;28;20036;-82
2021/06/14 03:50:55;;;;;;;11.18;4.53;;;;;;;10.73;100.00;101520.31;5194026;28;20022;-82
2021/06/14 03:53:32;;;;;;;11.23;4.53;;;;;;;10.87;100.00;101520.91;5196720;28;20033;-79
2021/06/14 03:56:05;;;;;;;10.75;4.97;;;;;;;10.95;100.00;101517.22;5192564;28;20046;-80
2021/06/14 03:58:36;;;;;;;11.00;5.07;;;;;;;11.10;98.46;101509.88;5196838;28;20037;-79
2021/06/14 04:01:07;;;;;;;11.00;4.65;;;;;;;11.03;100.00;101504.81;5195573;28;20052;-82
2021/06/14 04:03:37;;;;;;;13.20;4.70;;;;;;;11.04;100.00;101503.91;5196512;28;20033;-82
2021/06/14 04:06:07;;;;;;;9.43;4.63;;;;;;;11.24;99.01;101501.72;5197604;28;20032;-82
2021/06/14 04:08:38;;;;;;;11.57;4.72;;;;;;;11.29;99.46;101505.94;5195860;28;20036;-80
2021/06/14 04:11:08;;;;;;;8.48;4.68;;;;;;;11.28;100.00;101487.66;5194178;28;20021;-80
2021/06/14 04:13:38;;;;;;;11.65;4.85;;;;;;;11.49;99.94;101495.88;5194937;28;20041;-79
2021/06/14 04:16:09;;;;;;;11.68;4.93;;;;;;;11.92;97.60;101493.06;5195913;28;20025;-80
2021/06/14 04:18:39;;;;;;;12.77;4.80;;;;;;;12.15;99.36;101490.66;5196687;28;20034;-80
2021/06/14 04:21:10;;;;;;;14.73;4.70;;;;;;;11.95;99.95;101488.56;5194090;28;20396;-80
2021/06/14 04:23:40;;;;;;;13.68;4.95;;;;;;;12.03;100.00;101484.00;5196217;28;20395;-81
2021/06/14 04:26:12;;;;;;;12.38;5.20;;;;;;;12.15;100.00;101486.25;5197644;28;20045;-81
2021/06/14 04:28:42;;;;;;;14.23;5.50;;;;;;;12.21;100.00;101480.88;5196297;28;20030;-81
2021/06/14 04:31:12;;;;;;;12.50;5.10;;;;;;;12.42;100.00;101489.88;5196065;28;20594;-81
2021/06/14 04:33:43;;;;;;;10.45;5.00;;;;;;;12.69;99.97;101482.09;5194147;28;20391;-81
2021/06/14 04:36:13;;;;;;;14.45;5.22;;;;;;;13.15;100.00;101477.16;5195265;28;20029;-81
2021/06/14 04:38:43;;;;;;;9.15;4.60;;;;;;;14.01;95.00;101469.84;5194666;28;20080;-81
2021/06/14 04:41:14;;;;;;;10.95;4.60;;;;;;;16.80;82.98;101465.28;5195544;28;20514;-81
2021/06/14 04:43:44;;;;;;;11.43;4.43;;;;;;;17.80;78.87;101462.91;5193888;28;20030;-81
2021/06/14 04:46:15;;;;;;;10.93;3.90;;;;;;;20.66;67.88;101458.75;5196914;28;20025;-82
2021/06/14 04:48:45;;;;;;;11.63;4.05;;;;;;;20.16;68.32;101461.88;5195068;28;20283;-82
2021/06/14 04:51:15;;;;;;;9.00;3.53;;;;;;;21.35;69.66;101455.09;5196011;28;20057;-82
2021/06/14 04:53:46;;;;;;;9.88;3.97;;;;;;;22.44;63.86;101460.00;5194243;28;20486;-82
2021/06/14 04:56:16;;;;;;;6.15;3.25;;;;;;;25.36;57.06;101444.28;5195857;28;20030;-82
2021/06/14 04:58:47;;;;;;;9.32;3.50;;;;;;;25.04;56.56;101446.06;5195945;28;20026;-82
2021/06/14 05:01:17;;;;;;;6.15;3.63;;;;;;;23.10;61.18;101451.53;5199654;28;20532;-82
2021/06/14 05:03:47;;;;;;;8.50;3.80;;;;;;;23.38;60.97;101448.56;5196559;28;20013;-82
2021/06/14 05:06:18;;;;;;;8.63;3.47;;;;;;;23.76;60.01;101451.88;5201702;28;20053;-80
2021/06/14 05:08:48;;;;;;;8.83;3.30;;;;;;;24.04;59.90;101448.81;5198426;28;20736;-80
2021/06/14 05:11:18;;;;;;;8.20;3.70;;;;;;;23.59;61.11;101438.97;5196279;28;20033;-79
2021/06/14 05:13:49;;;;;;;9.63;3.47;;;;;;;23.47;62.34;101441.69;5199744;28;20030;-79
2021/06/14 05:16:19;;;;;;;7.87;3.80;;;;;;;24.16;59.87;101455.88;5198180;28;20059;-80
2021/06/14 05:18:49;;;;;;;6.63;3.30;;;;;;;25.36;57.42;101448.78;5195034;28;20285;-79
2021/06/14 05:21:20;;;;;;;9.07;3.83;;;;;;;25.00;56.66;101444.56;5198835;28;20036;-79
2021/06/14 05:23:51;;;;;;;7.13;3.05;;;;;;;25.97;55.52;101431.97;5200166;28;20268;-80
2021/06/14 05:26:21;;;;;;;8.48;4.07;;;;;;;25.32;56.23;101433.97;5192798;28;20105;-79
2021/06/14 05:28:52;;;;;;;10.13;3.65;;;;;;;23.51;61.59;101445.84;5196102;28;20036;-79
2021/06/14 05:31:22;;;;;;;11.93;3.92;;;;;;;25.14;56.56;101435.44;5195337;28;20034;-79
2021/06/14 05:33:53;;;;;;;7.38;3.60;;;;;;;24.21;59.41;101443.00;5200900;28;20513;-79
2021/06/14 05:36:23;;;;;;;10.23;3.60;;;;;;;24.87;58.72;101443.03;5198761;28;20026;-79
2021/06/14 05:38:54;;;;;;;7.60;3.40;;;;;;;25.51;56.00;101451.00;5198754;28;20324;-78
2021/06/14 05:41:24;;;;;;;10.60;3.78;;;;;;;24.01;59.61;101438.38;5195852;28;20045;-78
2021/06/14 05:43:55;;;;;;;6.67;3.20;;;;;;;25.67;57.28;101443.41;5196796;28;20085;-78
2021/06/14 05:46:25;;;;;;;7.22;3.63;;;;;;;25.57;56.52;101441.63;5196565;28;20279;-78
2021/06/14 05:48:56;;;;;;;8.57;3.70;;;;;;;24.82;59.49;101443.41;5197732;28;20025;-78
2021/06/14 05:51:26;;;;;;;7.50;3.40;;;;;;;23.93;59.72;101453.28;5196431;28;20203;-78
2021/06/14 05:53:56;;;;;;;7.63;4.00;;;;;;;22.71;63.39;101465.06;5197587;28;20029;-78
2021/06/14 05:56:28;;;;;;;8.82;3.75;;;;;;;21.99;66.84;101463.16;5194272;28;20801;-78
2021/06/14 05:58:58;;;;;;;13.27;3.90;;;;;;;21.95;66.61;101461.66;5193687;28;20029;-78
2021/06/14 06:01:29;;;;;;;8.77;3.67;;;;;;;21.45;66.77;101472.16;5193540;28;20088;-78
2021/06/14 06:03:59;;;;;;;8.38;3.67;;;;;;;22.32;65.51;101466.16;5196532;28;20114;-78
2021/06/14 06:06:30;;;;;;;12.82;3.83;;;;;;;22.12;66.09;101459.53;5198272;28;20089;-78
2021/06/14 06:09:00;;;;;;;8.87;3.83;;;;;;;22.05;65.84;101463.59;5193216;28;20021;-78
2021/06/14 06:11:31;;;;;;;10.65;3.70;;;;;;;22.21;65.26;101466.91;5197041;28;20367;-78
2021/06/14 06:14:01;;;;;;;9.13;3.75;;;;;;;21.79;67.14;101466.31;5195635;28;20032;-78
2021/06/14 06:16:32;;;;;;;8.23;3.92;;;;;;;22.02;66.78;101462.94;5194845;28;20043;-77
2021/06/14 06:19:02;;;;;;;7.75;3.72;;;;;;;22.15;65.68;101463.81;5191675;28;20026;-76
2021/06/14 06:21:33;;;;;;;8.88;3.85;;;;;;;22.34;64.20;101459.78;5193297;28;20438;-77
2021/06/14 06:24:04;;;;;;;9.82;4.00;;;;;;;22.06;67.11;101459.13;5191763;28;20424;-77
2021/06/14 06:26:34;;;;;;;8.70;3.72;;;;;;;22.66;63.60;101465.53;5190660;28;20368;-77
2021/06/14 06:29:05;;;;;;;8.38;3.40;;;;;;;22.67;63.01;101459.22;5189796;28;20024;-77
2021/06/14 06:31:35;;;;;;;11.10;4.20;;;;;;;22.97;63.72;101453.41;5195712;28;20480;-77
2021/06/14 06:34:05;;;;;;;11.20;3.97;;;;;;;22.73;63.09;101465.84;5190850;28;20138;-77
2021/06/14 06:36:36;;;;;;;10.30;4.13;;;;;;;23.43;62.38;101445.53;5193295;28;20789;-77
2021/06/14 06:39:06;;;;;;;8.60;3.85;;;;;;;23.10;62.55;101456.00;5192164;28;20037;-77
2021/06/14 06:41:36;;;;;;;12.03;4.10;;;;;;;23.45;62.11;101460.50;5193334;28;20029;-77
2021/06/14 06:44:09;;;;;;;7.65;3.65;;;;;;;23.36;63.33;101455.00;5190810;28;20375;-77
2021/06/14 06:46:40;;;;;;;10.07;3.95;;;;;;;23.93;62.65;101454.16;5192600;28;20481;-76
2021/06/14 06:49:10;;;;;;;8.60;3.58;;;;;;;24.49;61.01;101457.72;5192465;28;20036;-76
2021/06/14 06:51:40;;;;;;;9.70;3.70;;;;;;;24.10;61.86;101459.03;5192006;28;20025;-77
2021/06/14 06:54:11;;;;;;;10.85;3.88;;;;;;;24.03;63.11;101459.63;5192683;28;20034;-76
2021/06/14 06:56:43;;;;;;;11.82;3.97;;;;;;;23.34;64.08;101464.94;5190164;28;20025;-76
2021/06/14 06:59:14;;;;;;;11.02;3.90;;;;;;;23.18;64.71;101470.53;5189371;28;20057;-76
2021/06/14 07:01:44;;;;;;;9.63;3.70;;;;;;;24.96;60.52;101458.34;5193053;28;20025;-76
2021/06/14 07:04:15;;;;;;;8.63;3.53;;;;;;;24.28;62.82;101449.59;5189653;28;20438;-76
2021/06/14 07:06:46;;;;;;;9.82;3.70;;;;;;;25.17;58.23;101441.38;5191499;28;20534;-76
2021/06/14 07:09:16;;;;;;;8.35;3.60;;;;;;;24.95;60.65;101444.09;5191230;28;20112;-76
2021/06/14 07:11:47;;;;;;;10.63;3.97;;;;;;;25.73;59.25;101444.72;5191520;28;20028;-77
2021/06/14 07:14:17;;;;;;;11.38;3.78;;;;;;;26.61;59.54;101434.28;5224633;22;20047;-79
2021/06/14 07:16:47;;;;;;;8.83;3.63;;;;;;;26.75;56.33;101431.25;5219699;28;20056;-79
2021/06/14 07:19:18;;;;;;;9.83;3.70;;;;;;;25.56;59.97;101427.41;5213715;28;20288;-79
2021/06/14 07:21:48;;;;;;;8.07;3.78;;;;;;;24.93;59.63;101437.16;5214283;28;20358;-79
2021/06/14 07:24:18;;;;;;;8.10;3.77;;;;;;;25.63;58.31;101423.22;5212420;28;20026;-78
2021/06/14 07:26:48;;;;;;;7.57;3.50;;;;;;;25.26;57.89;101426.41;5204097;28;20315;-77
2021/06/14 07:29:19;;;;;;;10.30;4.03;;;;;;;24.91;62.18;101423.06;5214363;28;20820;-78
2021/06/14 07:31:49;;;;;;;13.15;3.70;;;;;;;24.93;60.53;101413.97;5214889;28;20292;-79
2021/06/14 07:34:19;;;;;;;8.93;3.85;;;;;;;25.23;61.03;101414.16;5212857;28;20021;-76
2021/06/14 07:36:50;;;;;;;7.63;3.60;;;;;;;26.00;56.71;101407.56;5216868;28;20059;-78
2021/06/14 07:39:20;;;;;;;10.77;3.97;;;;;;;26.68;57.05;101402.41;5212161;28;20280;-76
2021/06/14 07:41:51;;;;;;;8.27;3.50;;;;;;;26.94;58.26;101407.97;5214575;28;20021;-77
2021/06/14 07:44:21;;;;;;;11.02;3.30;;;;;;;27.34;57.22;101406.09;5210859;28;20033;-77
2021/06/14 07:46:52;;;;;;;8.82;3.47;;;;;;;29.10;52.68;101400.59;5214238;28;20032;-77
2021/06/14 07:49:23;;;;;;;7.22;3.38;;;;;;;29.17;52.16;101388.19;5210033;28;20021;-76
2021/06/14 07:51:54;;;;;;;8.75;3.38;;;;;;;29.50;49.58;101387.53;5206325;28;20037;-76
2021/06/14 07:54:24;;;;;;;7.15;3.28;;;;;;;28.42;52.76;101395.72;5209283;28;20506;-76
2021/06/14 07:56:54;;;;;;;9.13;3.47;;;;;;;27.12;54.05;101403.63;5201529;28;20025;-76
2021/06/14 07:59:25;;;;;;;10.43;3.45;;;;;;;26.30;55.65;101407.56;5210091;28;20029;-76
2021/06/14 08:01:55;;;;;;;8.57;3.50;;;;;;;27.42;54.26;101389.25;5213247;28;20036;-79
2021/06/14 08:04:26;;;;;;;10.60;3.20;;;;;;;28.03;51.72;101391.44;5211961;28;20558;-77
2021/06/14 08:06:57;;;;;;;8.43;3.33;;;;;;;28.12;52.40;101384.34;5214701;28;20033;-76
2021/06/14 08:09:30;;;;;;;7.15;3.45;;;;;;;28.66;49.44;101387.94;5209774;28;20021;-76
2021/06/14 08:12:01;;;;;;;7.10;3.20;;;;;;;29.43;48.26;101389.13;5214947;28;20268;-76
2021/06/14 08:14:32;;;;;;;9.43;3.40;;;;;;;27.56;49.68;101386.97;5210647;28;20040;-80
2021/06/14 08:17:03;;;;;;;9.00;3.40;;;;;;;27.40;50.31;101389.38;5213306;28;20025;-77
2021/06/14 08:19:43;;;;;;;7.85;3.42;;;;;;;27.19;53.29;101377.94;5211364;28;20564;-78
2021/06/14 08:22:38;;;;;;;5.47;3.08;;;;;;;29.92;48.77;101373.19;5212229;28;20080;-75
2021/06/14 08:25:10;;;;;;;8.50;3.47;;;;;;;30.56;46.66;101370.03;5202275;28;20738;-76
2021/06/14 08:27:44;;;;;;;7.53;3.30;;;;;;;28.42;49.61;101373.34;5204980;28;20283;-77
2021/06/14 08:30:20;;;;;;;7.38;3.72;;;;;;;28.16;51.46;101370.44;5212911;28;20026;-77
2021/06/14 08:32:51;;;;;;;8.90;3.20;;;;;;;28.58;49.60;101365.47;5217337;28;20106;-77
2021/06/14 08:35:24;;;;;;;5.97;3.30;;;;;;;28.73;49.85;101375.59;5216871;28;20700;-76
2021/06/14 08:37:55;;;;;;;10.05;3.80;;;;;;;29.07;47.88;101358.66;5210691;28;20131;-76
2021/06/14 08:40:29;;;;;;;9.77;3.10;;;;;;;29.47;49.05;101355.50;5217383;28;20159;-78
2021/06/14 08:43:03;;;;;;;7.68;3.28;;;;;;;29.13;48.36;101358.06;5214503;28;20037;-78
2021/06/14 08:45:37;;;;;;;9.10;3.67;;;;;;;27.54;50.59;101356.72;5216123;28;20028;-78
2021/06/14 08:48:10;;;;;;;8.23;3.45;;;;;;;27.93;50.94;101344.91;5215684;28;20037;-75
2021/06/14 08:50:41;;;;;;;9.30;3.10;;;;;;;27.22;52.05;101347.25;5215408;28;20116;-77
2021/06/14 08:53:12;;;;;;;7.38;3.40;;;;;;;30.20;49.63;101344.22;5216339;28;20036;-75
2021/06/14 08:55:45;;;;;;;7.63;3.20;;;;;;;30.04;49.85;101336.03;5207517;28;20034;-76
2021/06/14 08:58:15;;;;;;;8.63;3.38;;;;;;;31.05;46.07;101333.03;5213329;28;20569;-75
2021/06/14 09:00:46;;;;;;;9.27;3.72;;;;;;;30.11;46.45;101334.41;5217999;28;20075;-76
2021/06/14 09:03:18;;;;;;;8.50;3.57;;;;;;;29.95;47.81;101329.72;5215854;28;20025;-77
2021/06/14 09:05:48;;;;;;;7.93;3.00;;;;;;;30.63;47.14;101322.50;5219707;28;20279;-76
2021/06/14 09:08:24;;;;;;;5.87;2.80;;;;;;;29.98;46.92;101323.16;5216671;28;20853;-74
2021/06/14 09:10:55;;;;;;;12.35;3.20;;;;;;;30.47;48.47;101314.31;5205579;28;20693;-78
2021/06/14 09:13:27;;;;;;;6.55;3.30;;;;;;;29.17;48.53;101312.78;5212075;28;20029;-78
2021/06/14 09:16:06;;;;;;;8.93;3.28;;;;;;;29.59;48.08;101311.13;5208006;28;20404;-76
2021/06/14 09:18:37;;;;;;;5.18;2.90;;;;;;;29.04;49.04;101309.66;5210257;28;20029;-75
2021/06/14 09:21:14;;;;;;;6.00;2.80;;;;;;;29.27;48.21;101305.47;5215524;28;20540;-78
2021/06/14 09:23:49;;;;;;;6.68;2.90;;;;;;;30.26;46.80;101300.41;5205379;28;20047;-78
2021/06/14 09:26:23;;;;;;;6.30;2.90;;;;;;;29.65;45.98;101292.47;5214341;28;20016;-79
2021/06/14 09:28:57;;;;;;;7.93;3.10;;;;;;;29.80;47.28;101290.91;5209272;28;20513;-76
2021/06/14 09:31:37;;;;;;;7.82;2.80;;;;;;;29.38;47.45;101286.38;5213536;28;20500;-76
2021/06/14 09:34:09;;;;;;;6.90;3.00;;;;;;;29.36;45.69;101282.97;5215578;28;20207;-77
2021/06/14 09:36:41;;;;;;;6.60;3.05;;;;;;;29.75;45.70;101270.81;5214821;28;20029;-76
2021/06/14 09:39:15;;;;;;;7.93;3.08;;;;;;;30.25;48.44;101266.34;5216992;28;20108;-77
2021/06/14 09:41:48;;;;;;;6.07;2.97;;;;;;;29.08;49.10;101268.78;5211807;28;20041;-76
2021/06/14 09:44:29;;;;;;;6.30;2.70;;;;;;;30.09;48.79;101253.63;5212732;28;20028;-76
2021/06/14 09:47:06;;;;;;;5.70;2.67;;;;;;;30.16;48.50;101248.44;5211517;28;20442;-77
2021/06/14 09:49:37;;;;;;;4.78;2.72;;;;;;;30.17;46.87;101248.28;5215096;28;20037;-77
2021/06/14 09:52:20;;;;;;;8.77;3.13;;;;;;;29.54;50.48;101254.19;5214819;28;20645;-77
2021/06/14 09:54:52;;;;;;;6.85;2.92;;;;;;;29.34;47.69;101247.25;5209270;28;20075;-77
2021/06/14 09:57:28;;;;;;;6.43;3.20;;;;;;;29.46;47.44;101243.28;5206414;28;20714;-76
2021/06/14 10:00:16;;;;;;;6.47;3.10;;;;;;;28.78;49.61;101231.47;5209640;28;20406;-77
2021/06/14 10:02:46;;;;;;;5.00;2.60;;;;;;;29.37;46.93;101237.00;5209138;28;20100;-76
2021/06/14 10:05:21;;;;;;;6.82;3.20;;;;;;;28.66;50.05;101237.22;5212583;28;20112;-79
2021/06/14 10:07:54;;;;;;;;;;;;;;;29.34;47.73;101231.94;5213199;28;20107;-76
2021/06/14 10:10:28;;;;;;;6.47;2.90;;;;;;;28.94;49.67;101233.47;5208004;28;19924;-76
2021/06/14 10:12:59;;;;;;;27.75;22.15;;;;;;;27.61;51.95;101233.41;5218771;28;20102;-76
2021/06/14 10:15:37;;;;;;;6.78;3.70;;;;;;;28.06;51.17;101229.81;5215136;28;20535;-76
2021/06/14 10:18:09;;;;;;;8.50;5.35;;;;;;;27.90;52.38;101221.56;5215888;28;20029;-78
2021/06/14 10:20:40;;;;;;;7.05;3.75;;;;;;;27.60;50.45;101227.16;5219386;28;20085;-79
2021/06/14 10:23:10;;;;;;;6.97;2.83;;;;;;;27.38;53.52;101226.66;5217858;28;20104;-78
2021/06/14 10:25:40;;;;;;;8.70;3.07;;;;;;;26.32;53.40;101220.63;5212287;28;20037;-78
2021/06/14 10:28:11;;;;;;;6.70;3.00;;;;;;;26.50;54.46;101221.66;5211678;28;20382;-78
2021/06/14 10:30:42;;;;;;;6.55;3.13;;;;;;;26.54;55.04;101210.50;5215290;28;20025;-77
2021/06/14 10:33:14;;;;;;;5.93;2.90;;;;;;;25.83;55.42;101215.25;5206613;28;20025;-78
2021/06/14 10:35:45;;;;;;;6.18;3.00;;;;;;;26.12;55.36;101203.66;5208644;28;20090;-78
2021/06/14 10:38:17;;;;;;;7.38;2.95;;;;;;;26.05;56.03;101193.63;5215078;28;20025;-78
2021/06/14 10:40:50;;;;;;;5.65;3.08;;;;;;;26.54;59.64;101193.56;5213479;28;20030;-78
2021/06/14 10:43:24;;;;;;;6.20;2.78;;;;;;;26.27;57.58;101185.31;5217013;28;20025;-76
2021/06/14 10:45:56;;;;;;;6.38;2.67;;;;;;;26.16;58.69;101180.09;5207223;28;20029;-77
2021/06/14 10:48:32;;;;;;;9.70;3.08;;;;;;;26.05;58.73;101170.34;5216475;28;20390;-79
2021/06/14 10:51:11;;;;;;;5.80;3.00;;;;;;;26.42;60.21;101173.19;5215486;28;20384;-79
2021/06/14 10:53:41;;;;;;;6.40;3.17;;;;;;;26.61;56.25;101173.22;5217109;28;20025;-80
2021/06/14 10:56:14;;;;;;;8.73;3.00;;;;;;;26.73;59.17;101161.38;5205191;28;20094;-79
2021/06/14 10:59:04;;;;;;;6.90;3.00;;;;;;;26.57;55.43;101166.47;5215215;28;20082;-77
2021/06/14 11:01:39;;;;;;;8.50;2.90;;;;;;;26.90;57.65;101164.19;5211873;28;20044;-77
2021/06/14 11:04:21;;;;;;;;;;;;;;;27.21;61.66;101155.78;5206057;28;20045;-79
2021/06/14 11:06:57;;;;;;;7.78;3.20;;;;;;;27.11;59.03;101170.22;5216916;28;19964;-77
2021/06/14 11:09:40;;;;;;;7.82;3.42;;;;;;;26.26;58.13;101164.84;5215132;28;20021;-78
2021/06/14 11:12:24;;;;;;;8.52;3.47;;;;;;;26.76;58.18;101149.34;5213382;28;20025;-78
2021/06/14 11:14:54;;;;;;;9.35;3.50;;;;;;;26.66;58.48;101145.00;5212505;28;20021;-79
2021/06/14 11:17:24;;;;;;;4.95;3.00;;;;;;;26.78;58.53;101146.53;5223399;28;20174;-78
2021/06/14 11:20:01;;;;;;;11.93;3.37;;;;;;;26.61;56.24;101135.66;5205368;28;20032;-78
2021/06/14 11:22:40;;;;;;;8.15;2.97;;;;;;;25.98;57.07;101133.53;5207855;28;20049;-78
2021/06/14 11:25:24;;;;;;;6.55;3.28;;;;;;;26.13;60.69;101140.16;5208812;28;20026;-78
2021/06/14 11:27:55;;;;;;;7.85;3.70;;;;;;;25.92;61.31;101142.09;5216686;28;20032;-78
2021/06/14 11:30:28;;;;;;;8.52;3.40;;;;;;;25.64;57.11;101127.63;5219430;28;20040;-79
2021/06/14 11:32:59;;;;;;;8.65;3.80;;;;;;;25.77;55.37;101125.53;5211310;28;20586;-78
2021/06/14 11:35:33;;;;;;;8.43;3.40;;;;;;;25.94;56.12;101122.22;5207497;28;20083;-79
2021/06/14 11:38:05;;;;;;;7.68;3.20;;;;;;;25.90;57.65;101130.66;5218518;28;20029;-78
2021/06/14 11:40:36;;;;;;;8.93;3.60;;;;;;;25.78;61.87;101126.38;5217369;28;20025;-79
2021/06/14 11:43:11;;;;;;;11.70;3.60;;;;;;;26.28;60.99;101117.31;5213521;28;20018;-77